createdAt,value
2018-12-11T00:03:57.096Z,82.76
2018-12-11T00:09:00.621Z,82.53
2018-12-11T00:14:04.234Z,81.76
2018-12-11T00:19:07.569Z,81.56
2018-12-11T00:24:11.230Z,81.26
2018-12-11T00:29:14.688Z,81.11
2018-12-11T00:34:32.017Z,81.05
2018-12-11T00:39:35.492Z,81.30
2018-12-11T00:44:38.844Z,80.74
2018-12-11T00:49:42.008Z,81.34
2018-12-11T01:00:21.596Z,80.30
2018-12-11T01:11:11.289Z,80.12
2018-12-11T01:21:45.566Z,78.95
2018-12-11T01:26:48.821Z,79.42
2018-12-11T01:31:51.976Z,78.57
2018-12-11T01:36:55.377Z,78.80
2018-12-11T01:41:58.865Z,78.31
2018-12-11T01:47:02.345Z,78.33
2018-12-11T01:52:05.509Z,78.14
2018-12-11T01:57:08.976Z,78.41
2018-12-11T02:02:12.156Z,78.57
2018-12-11T02:07:34.336Z,78.36
2018-12-11T02:12:37.526Z,77.87
2018-12-11T02:17:40.953Z,78.36
2018-12-11T02:22:44.182Z,77.54
2018-12-11T02:27:47.481Z,77.56
2018-12-11T02:32:50.766Z,76.74
2018-12-11T02:37:54.230Z,77.07
2018-12-11T02:42:57.461Z,77.15
2018-12-11T02:48:00.950Z,77.21
2018-12-11T02:53:04.254Z,77.62
2018-12-11T03:03:35.694Z,77.54
2018-12-11T03:08:39.194Z,77.53
2018-12-11T03:13:42.565Z,77.27
2018-12-11T03:18:45.808Z,77.43
2018-12-11T03:23:49.254Z,77.77
2018-12-11T03:28:52.630Z,77.64
2018-12-11T03:33:55.924Z,77.35
2018-12-11T03:38:59.304Z,77.22
2018-12-11T03:44:02.694Z,76.82
2018-12-11T03:49:05.928Z,77.22
2018-12-11T03:54:09.281Z,76.53
2018-12-11T03:59:12.588Z,76.49
2018-12-11T04:04:15.824Z,76.37
2018-12-11T04:09:18.989Z,75.81
2018-12-11T04:14:22.679Z,76.01
2018-12-11T04:19:25.908Z,75.74
2018-12-11T04:24:29.193Z,75.30
2018-12-11T04:29:32.535Z,75.01
2018-12-11T04:34:36.013Z,74.24
2018-12-11T04:39:39.179Z,73.64
2018-12-11T04:44:42.439Z,73.14
2018-12-11T04:49:51.285Z,72.54
2018-12-11T04:54:59.993Z,72.35
2018-12-11T05:00:06.724Z,72.05
2018-12-11T05:05:15.475Z,71.40
2018-12-11T05:10:20.600Z,70.96
2018-12-11T05:15:29.593Z,71.26
2018-12-11T05:20:38.855Z,70.96
2018-12-11T05:25:46.044Z,70.63
2018-12-11T05:30:52.925Z,71.06
2018-12-11T05:36:01.865Z,70.94
2018-12-11T05:41:08.246Z,70.94
2018-12-11T05:46:17.465Z,71.21
2018-12-11T05:51:24.010Z,71.22
2018-12-11T05:56:30.885Z,70.82
2018-12-11T06:01:37.691Z,70.62
2018-12-11T06:06:46.732Z,71.28
2018-12-11T06:11:54.347Z,70.60
2018-12-11T06:17:03.521Z,71.01
2018-12-11T06:22:10.093Z,70.62
2018-12-11T06:27:19.557Z,70.18
2018-12-11T06:32:30.246Z,70.34
2018-12-11T06:37:39.873Z,71.45
2018-12-11T06:42:51.389Z,70.92
2018-12-11T06:48:00.808Z,71.23
2018-12-11T06:53:09.800Z,71.84
2018-12-11T06:58:16.693Z,72.14
2018-12-11T07:13:35.409Z,72.04
2018-12-11T07:18:44.936Z,72.27
2018-12-11T07:23:54.534Z,73.11
2018-12-11T07:29:01.132Z,73.21
2018-12-11T07:34:08.573Z,74.50
2018-12-11T07:39:17.456Z,75.94
2018-12-11T07:44:26.381Z,74.89
2018-12-11T07:49:35.744Z,76.25
2018-12-11T07:54:44.914Z,77.03
2018-12-11T07:59:54.393Z,76.62
2018-12-11T08:05:03.895Z,75.89
2018-12-11T08:10:13.261Z,77.17
2018-12-11T08:15:22.529Z,78.04
2018-12-11T08:20:31.512Z,77.43
2018-12-11T08:25:40.509Z,76.30
2018-12-11T08:30:47.244Z,75.94
2018-12-11T08:35:56.349Z,74.98
2018-12-11T08:41:05.835Z,74.19
2018-12-11T08:46:14.483Z,73.40
2018-12-11T08:51:30.613Z,73.31
2018-12-11T08:56:39.515Z,72.28
2018-12-11T09:01:48.701Z,73.05
2018-12-11T09:06:55.877Z,73.18
2018-12-11T09:12:04.639Z,72.18
2018-12-11T09:22:15.081Z,73.05
2018-12-11T09:27:24.111Z,74.31
2018-12-11T09:32:50.163Z,75.53
2018-12-11T09:37:57.205Z,76.58
2018-12-11T09:43:06.284Z,76.56
2018-12-11T09:48:15.481Z,76.49
2018-12-11T09:53:22.797Z,76.54
2018-12-11T09:58:31.666Z,75.69
2018-12-11T10:03:41.346Z,75.75
2018-12-11T10:08:52.949Z,76.25
2018-12-11T10:14:02.567Z,76.52
2018-12-11T10:24:17.738Z,76.18
2018-12-11T10:29:27.486Z,76.04
2018-12-11T10:34:36.774Z,76.98
2018-12-11T10:39:43.123Z,76.61
2018-12-11T10:44:51.846Z,77.65
2018-12-11T10:50:00.642Z,77.03
2018-12-11T10:55:07.656Z,77.09
2018-12-11T11:00:20.967Z,78.09
2018-12-11T11:05:24.296Z,77.08
2018-12-11T11:10:27.638Z,77.66
2018-12-11T11:15:31.154Z,77.73
2018-12-11T11:20:34.583Z,78.14
2018-12-11T11:42:20.225Z,77.71
2018-12-11T11:47:23.742Z,77.01
2018-12-11T11:52:27.009Z,76.46
2018-12-11T11:57:30.337Z,76.28
2018-12-11T12:02:33.638Z,76.60
2018-12-11T12:07:37.130Z,77.06
2018-12-11T12:12:40.531Z,76.76
2018-12-11T12:17:55.963Z,77.30
2018-12-11T12:28:30.453Z,77.90
2018-12-11T12:33:40.101Z,76.76
2018-12-11T12:44:21.119Z,76.44
2018-12-11T12:49:24.554Z,76.66
2018-12-11T12:54:33.869Z,76.14
2018-12-11T12:59:43.327Z,76.00
2018-12-11T13:04:50.434Z,74.88
2018-12-11T13:09:57.494Z,74.60
2018-12-11T13:15:07.413Z,74.51
2018-12-11T13:20:14.359Z,73.89
2018-12-11T13:25:17.652Z,74.37
2018-12-11T13:30:21.923Z,73.32
2018-12-11T13:41:03.201Z,72.91
2018-12-11T13:46:06.659Z,72.39
2018-12-11T13:51:10.059Z,73.03
2018-12-11T13:56:13.386Z,73.78
2018-12-11T14:01:16.728Z,73.30
2018-12-11T14:06:20.000Z,74.05
2018-12-11T14:11:23.356Z,73.58
2018-12-11T14:16:26.710Z,74.22
2018-12-11T14:21:29.974Z,73.78
2018-12-11T14:26:33.330Z,74.08
2018-12-11T14:31:37.361Z,74.21
2018-12-11T14:36:40.657Z,73.86
2018-12-11T14:41:43.966Z,73.93
2018-12-11T14:46:47.275Z,73.56
2018-12-11T14:51:50.549Z,73.92
2018-12-11T14:56:53.872Z,73.68
2018-12-11T15:01:57.135Z,73.92
2018-12-11T15:07:00.350Z,73.60
2018-12-11T15:12:03.548Z,74.11
2018-12-11T15:17:06.749Z,74.22
2018-12-11T15:22:10.161Z,73.97
2018-12-11T15:27:13.502Z,73.19
2018-12-11T15:32:16.752Z,74.48
2018-12-11T15:37:20.058Z,72.96
2018-12-11T15:42:23.334Z,73.19
2018-12-11T15:47:26.630Z,72.91
2018-12-11T15:52:29.959Z,72.81
2018-12-11T15:57:33.263Z,72.47
2018-12-11T16:02:36.925Z,73.25
2018-12-11T16:07:40.312Z,72.99
2018-12-11T16:12:43.666Z,73.11
2018-12-11T16:17:46.953Z,73.70
2018-12-11T16:22:50.220Z,73.83
2018-12-11T16:27:53.717Z,74.77
2018-12-11T16:32:57.103Z,75.77
2018-12-11T16:38:00.405Z,75.76
2018-12-11T16:43:03.730Z,75.88
2018-12-11T16:48:07.028Z,76.29
2018-12-11T16:53:10.278Z,76.53
2018-12-11T16:58:13.596Z,76.30
2018-12-11T17:03:16.905Z,76.08
2018-12-11T17:08:20.234Z,75.94
2018-12-11T17:13:23.573Z,75.58
2018-12-11T17:18:26.935Z,75.44
2018-12-11T17:23:30.208Z,75.82
2018-12-11T17:28:33.590Z,75.47
2018-12-11T17:33:37.164Z,75.53
2018-12-11T17:38:40.498Z,75.69
2018-12-11T17:43:43.922Z,75.64
2018-12-11T17:48:47.184Z,75.25
2018-12-11T17:53:50.778Z,75.23
2018-12-11T17:58:54.033Z,75.22
2018-12-11T18:03:57.254Z,74.91
2018-12-11T18:09:00.561Z,74.67
2018-12-11T18:14:03.913Z,74.60
2018-12-11T18:19:07.292Z,74.79
2018-12-11T18:24:10.653Z,74.51
2018-12-11T18:29:13.881Z,74.42
2018-12-11T18:34:17.414Z,74.04
2018-12-11T18:39:20.773Z,74.88
2018-12-11T18:44:24.170Z,75.20
2018-12-11T18:49:27.456Z,75.08
2018-12-11T18:54:30.756Z,75.23
2018-12-11T18:59:33.977Z,74.91
2018-12-11T19:04:37.345Z,75.31
2018-12-11T19:09:40.770Z,75.33
2018-12-11T19:14:44.088Z,74.74
2018-12-11T19:19:47.453Z,75.26
2018-12-11T19:24:53.349Z,75.19
2018-12-11T19:29:56.617Z,75.13
2018-12-11T19:34:59.954Z,74.92
2018-12-11T19:40:03.302Z,74.38
2018-12-11T19:45:07.098Z,74.44
2018-12-11T19:50:10.408Z,74.29
2018-12-11T19:55:13.624Z,74.11
2018-12-11T20:00:16.900Z,74.41
2018-12-11T20:05:20.242Z,74.69
2018-12-11T20:10:27.702Z,75.22
2018-12-11T20:15:30.982Z,75.43
2018-12-11T20:20:34.188Z,76.31
2018-12-11T20:25:37.389Z,76.13
2018-12-11T20:30:40.768Z,75.71
2018-12-11T20:35:44.070Z,76.11
2018-12-11T20:40:47.374Z,75.96
2018-12-11T20:45:51.130Z,75.89
2018-12-11T20:50:54.356Z,76.11
2018-12-11T20:55:57.668Z,76.02
2018-12-11T21:01:01.565Z,76.29
2018-12-11T21:06:04.878Z,76.57
2018-12-11T21:11:08.237Z,76.47
2018-12-11T21:16:12.493Z,77.00
2018-12-11T21:21:18.566Z,77.37
2018-12-11T21:26:21.886Z,77.18
2018-12-11T21:31:25.334Z,77.20
2018-12-11T21:36:28.585Z,77.84
2018-12-11T21:41:31.933Z,77.78
2018-12-11T21:46:35.193Z,78.12
2018-12-11T21:51:38.415Z,77.88
2018-12-11T21:56:41.793Z,78.29
2018-12-11T22:01:45.768Z,78.11
2018-12-11T22:06:48.978Z,78.30
2018-12-11T22:11:52.309Z,78.29
2018-12-11T22:16:55.567Z,78.20
2018-12-11T22:21:58.814Z,78.64
2018-12-11T22:27:02.212Z,78.28
2018-12-11T22:32:05.723Z,78.43
2018-12-11T22:37:09.008Z,78.32
2018-12-11T22:42:12.324Z,78.21
2018-12-11T22:47:15.953Z,78.43
2018-12-11T22:52:19.166Z,78.64
2018-12-11T22:57:22.388Z,78.69
2018-12-11T23:02:25.647Z,78.27
2018-12-11T23:07:29.010Z,78.41
2018-12-11T23:12:32.226Z,78.24
2018-12-11T23:17:35.413Z,77.90
2018-12-11T23:22:38.741Z,78.26
2018-12-11T23:27:41.933Z,78.30
2018-12-11T23:32:45.118Z,78.26
2018-12-11T23:37:48.574Z,78.27
2018-12-11T23:42:51.743Z,78.02
2018-12-11T23:47:54.921Z,77.86
2018-12-11T23:52:58.228Z,77.75
2018-12-11T23:58:01.380Z,77.98
